Time;durP1;ratioP1;P1;durP2;ratioP2;P2;SDS_P1;SDS_P2;PMS_P1;PMS_P2;Temp;Humidity;BMP_temperature;BMP_pressure;BME280_temperature;BME280_humidity;BME280_pressure;Samples;Min_cycle;Max_cycle;Signal;HPM_P1;HPM_P2
2021/12/10 00:01:49;;;;;;;2.47;1.13;;;;;;;;;;5007899;28;20463;-72
2021/12/10 00:04:16;;;;;;;1.83;1.00;;;;;;;;;;5005465;28;20567;-72
2021/12/10 00:06:45;;;;;;;2.13;1.60;;;;;;;;;;5006293;28;20740;-73
2021/12/10 00:09:37;;;;;;;1.77;0.73;;;;;;;;;;5036261;28;20471;-72
2021/12/10 00:12:06;;;;;;;1.00;1.00;;;;;;;;;;5005939;28;20953;-74
2021/12/10 00:14:33;;;;;;;0.70;0.70;;;;;;;;;;5006932;28;20801;-72
2021/12/10 00:17:00;;;;;;;2.10;1.63;;;;;;;;;;5038596;28;20463;-74
2021/12/10 00:19:37;;;;;;;1.97;0.97;;;;;;;;;;5000680;28;20455;-73
2021/12/10 00:22:07;;;;;;;4.00;1.10;;;;;;;;;;5007984;28;20412;-73
2021/12/10 00:24:34;;;;;;;2.00;0.93;;;;;;;;;;5037906;28;20483;-73
2021/12/10 00:27:04;;;;;;;1.10;0.80;;;;;;;;;;5009043;28;20444;-73
2021/12/10 00:29:30;;;;;;;1.70;1.20;;;;;;;;;;5005678;28;20921;-74
2021/12/10 00:32:01;;;;;;;0.77;0.77;;;;;;;;;;5006372;28;20928;-72
2021/12/10 00:34:30;;;;;;;3.27;0.70;;;;;;;;;;5006858;28;20439;-71
2021/12/10 00:36:58;;;;;;;2.00;0.80;;;;;;;;;;5007883;28;20444;-73
2021/12/10 00:39:25;;;;;;;0.60;0.60;;;;;;;;;;5037189;28;20458;-73
2021/12/10 00:41:52;;;;;;;3.00;1.00;;;;;;;;;;5008539;28;20428;-72
2021/12/10 00:44:18;;;;;;;3.37;1.13;;;;;;;;;;5006361;28;20475;-73
2021/12/10 00:46:44;;;;;;;3.80;1.00;;;;;;;;;;5007942;28;20507;-72
2021/12/10 00:49:12;;;;;;;2.53;1.00;;;;;;;;;;5005396;28;20507;-73
2021/12/10 00:51:38;;;;;;;3.90;1.40;;;;;;;;;;5005959;28;20428;-72
2021/12/10 00:54:05;;;;;;;1.57;1.37;;;;;;;;;;5006774;28;20444;-72
2021/12/10 00:56:31;;;;;;;2.70;0.80;;;;;;;;;;5007506;28;20436;-72
2021/12/10 00:58:58;;;;;;;1.50;0.93;;;;;;;;;;5006659;28;20412;-72
2021/12/10 01:01:26;;;;;;;1.80;1.07;;;;;;;;;;5008456;28;21011;-74
2021/12/10 01:03:54;;;;;;;0.90;0.73;;;;;;;;;;5002687;28;20514;-72
2021/12/10 01:06:21;;;;;;;1.03;0.80;;;;;;;;;;5007248;28;20485;-73
2021/12/10 01:08:49;;;;;;;3.47;0.87;;;;;;;;;;5008474;28;20525;-72
2021/12/10 01:11:19;;;;;;;0.83;0.70;;;;;;;;;;4996094;28;20440;-72
2021/12/10 01:13:48;;;;;;;2.00;1.13;;;;;;;;;;5029844;28;20971;-71
2021/12/10 01:23:46;;;;;;;1.70;0.83;;;;;;;;;;5005095;28;20505;-72
2021/12/10 01:27:39;;;;;;;2.83;1.10;;;;;;;;;;4980330;28;20437;-72
2021/12/10 01:30:12;;;;;;;2.73;1.60;;;;;;;;;;5007985;28;20566;-72
2021/12/10 01:32:40;;;;;;;1.80;0.93;;;;;;;;;;5008784;28;20417;-71
2021/12/10 01:35:08;;;;;;;1.70;0.80;;;;;;;;;;5000629;28;20518;-74
2021/12/10 01:37:34;;;;;;;0.80;0.80;;;;;;;;;;5004419;28;20449;-73
2021/12/10 01:40:00;;;;;;;1.47;1.10;;;;;;;;;;5004516;28;20440;-72
2021/12/10 01:44:54;;;;;;;2.57;1.20;;;;;;;;;;5009408;28;20956;-72
2021/12/10 01:47:22;;;;;;;0.90;0.90;;;;;;;;;;5008504;28;20509;-74
2021/12/10 01:49:48;;;;;;;1.03;1.00;;;;;;;;;;5008514;28;20995;-74
2021/12/10 01:52:15;;;;;;;1.30;1.20;;;;;;;;;;5001877;28;21023;-72
2021/12/10 01:55:01;;;;;;;4.93;0.80;;;;;;;;;;5010503;28;20443;-73
2021/12/10 01:57:30;;;;;;;1.70;1.60;;;;;;;;;;5010549;28;20424;-71
2021/12/10 01:59:56;;;;;;;0.60;0.60;;;;;;;;;;5008311;28;20448;-73
2021/12/10 02:02:24;;;;;;;1.03;0.83;;;;;;;;;;5041735;28;20428;-73
2021/12/10 02:04:50;;;;;;;2.27;1.13;;;;;;;;;;5010636;28;20435;-73
2021/12/10 02:07:19;;;;;;;6.47;1.07;;;;;;;;;;5009906;28;20436;-74
2021/12/10 02:09:45;;;;;;;1.23;1.00;;;;;;;;;;5008166;28;20487;-72
2021/12/10 02:12:12;;;;;;;0.70;0.67;;;;;;;;;;5040159;28;20444;-72
2021/12/10 02:14:38;;;;;;;2.97;0.87;;;;;;;;;;5010123;28;20465;-71
2021/12/10 02:17:04;;;;;;;1.10;1.10;;;;;;;;;;5011930;28;20582;-72
2021/12/10 02:19:31;;;;;;;4.37;0.70;;;;;;;;;;5011254;28;20435;-74
2021/12/10 02:21:59;;;;;;;1.40;0.93;;;;;;;;;;5008294;28;20440;-72
2021/12/10 02:24:25;;;;;;;0.80;0.80;;;;;;;;;;5042853;28;20428;-72
2021/12/10 02:27:02;;;;;;;1.63;0.87;;;;;;;;;;5011058;28;20436;-72
2021/12/10 02:29:30;;;;;;;4.33;1.03;;;;;;;;;;5005546;28;20538;-74
2021/12/10 02:31:56;;;;;;;2.07;1.97;;;;;;;;;;5010443;28;20420;-72
2021/12/10 02:34:24;;;;;;;1.77;0.83;;;;;;;;;;5009218;28;20929;-71
2021/12/10 02:36:50;;;;;;;0.90;0.90;;;;;;;;;;5040931;28;20556;-72
2021/12/10 02:39:18;;;;;;;1.50;1.30;;;;;;;;;;5009504;28;20479;-72
2021/12/10 02:41:44;;;;;;;2.10;1.67;;;;;;;;;;5009646;28;20446;-73
2021/12/10 02:44:12;;;;;;;3.13;1.47;;;;;;;;;;5009198;28;20799;-72
2021/12/10 02:46:38;;;;;;;5.77;1.17;;;;;;;;;;5007670;28;20507;-73
2021/12/10 02:49:05;;;;;;;0.90;0.90;;;;;;;;;;5042972;28;20570;-73
2021/12/10 02:51:32;;;;;;;2.40;1.80;;;;;;;;;;5007339;28;20436;-74
2021/12/10 02:53:59;;;;;;;3.30;2.87;;;;;;;;;;5010308;28;20998;-73
2021/12/10 02:56:25;;;;;;;9.23;4.20;;;;;;;;;;5010273;28;20543;-74
2021/12/10 02:58:53;;;;;;;3.70;3.20;;;;;;;;;;5009311;28;20873;-73
2021/12/10 03:01:25;;;;;;;3.10;2.17;;;;;;;;;;5010524;28;20494;-73
2021/12/10 03:03:51;;;;;;;1.70;1.00;;;;;;;;;;5010841;28;20447;-72
2021/12/10 03:06:19;;;;;;;6.33;2.27;;;;;;;;;;5009070;28;20424;-72
2021/12/10 03:08:47;;;;;;;7.87;4.00;;;;;;;;;;5008727;28;20475;-71
2021/12/10 03:11:14;;;;;;;4.80;3.13;;;;;;;;;;5008969;28;20440;-73
2021/12/10 03:13:40;;;;;;;3.43;3.10;;;;;;;;;;5010682;28;20921;-72
2021/12/10 03:16:07;;;;;;;3.30;3.00;;;;;;;;;;5010274;28;20925;-73
2021/12/10 03:18:33;;;;;;;5.30;2.53;;;;;;;;;;5010419;28;20424;-73
2021/12/10 03:20:59;;;;;;;4.53;2.37;;;;;;;;;;5041181;28;20498;-73
2021/12/10 03:23:25;;;;;;;4.93;2.17;;;;;;;;;;5040561;28;20956;-73
2021/12/10 03:25:51;;;;;;;2.30;1.37;;;;;;;;;;5009553;28;20491;-71
2021/12/10 03:28:17;;;;;;;3.83;1.73;;;;;;;;;;5008734;28;20467;-74
2021/12/10 03:30:46;;;;;;;2.27;2.17;;;;;;;;;;5009946;28;20486;-73
2021/12/10 03:33:12;;;;;;;3.50;2.00;;;;;;;;;;5039250;28;20500;-73
2021/12/10 03:35:42;;;;;;;1.83;1.67;;;;;;;;;;5009103;28;20432;-72
2021/12/10 03:38:09;;;;;;;16.37;2.37;;;;;;;;;;5009648;28;20464;-73
2021/12/10 03:40:35;;;;;;;3.90;2.00;;;;;;;;;;5041962;28;20999;-71
2021/12/10 03:43:01;;;;;;;1.93;1.40;;;;;;;;;;5009312;28;20435;-72
2021/12/10 03:45:32;;;;;;;1.93;1.40;;;;;;;;;;5009968;28;20527;-73
2021/12/10 03:47:59;;;;;;;3.03;1.40;;;;;;;;;;5009274;28;20479;-73
2021/12/10 03:50:27;;;;;;;3.23;2.03;;;;;;;;;;5041088;28;20475;-72
2021/12/10 03:53:09;;;;;;;2.30;1.03;;;;;;;;;;5126211;27;20316;-74
2021/12/10 03:55:35;;;;;;;3.27;0.90;;;;;;;;;;5127680;28;20930;-73
2021/12/10 03:58:02;;;;;;;0.97;0.97;;;;;;;;;;5106283;28;20435;-73
2021/12/10 04:00:30;;;;;;;1.90;0.93;;;;;;;;;;5125551;28;20442;-73
2021/12/10 04:02:56;;;;;;;0.77;0.77;;;;;;;;;;5126698;28;20860;-73
2021/12/10 04:05:23;;;;;;;1.83;1.40;;;;;;;;;;5126892;28;20438;-75
2021/12/10 04:07:48;;;;;;;2.40;1.17;;;;;;;;;;5126473;28;20903;-74
2021/12/10 04:10:16;;;;;;;4.23;1.60;;;;;;;;;;5127599;28;20476;-74
2021/12/10 04:12:42;;;;;;;4.37;1.60;;;;;;;;;;5124524;28;20980;-74
2021/12/10 04:15:09;;;;;;;3.60;1.90;;;;;;;;;;5126911;28;20910;-75
2021/12/10 04:17:35;;;;;;;2.80;1.30;;;;;;;;;;5126419;28;20455;-74
2021/12/10 04:20:02;;;;;;;6.30;1.47;;;;;;;;;;5108697;28;20510;-74
2021/12/10 04:22:32;;;;;;;3.37;1.80;;;;;;;;;;5125884;28;20998;-74
2021/12/10 04:24:59;;;;;;;7.93;2.07;;;;;;;;;;5124866;28;20914;-73
2021/12/10 04:27:25;;;;;;;8.57;2.20;;;;;;;;;;5126103;28;20442;-73
2021/12/10 04:29:55;;;;;;;2.57;2.17;;;;;;;;;;5126436;28;20434;-73
2021/12/10 04:32:21;;;;;;;1.03;1.03;;;;;;;;;;5106269;28;20529;-74
2021/12/10 04:34:48;;;;;;;1.53;1.47;;;;;;;;;;5106808;28;20439;-73
2021/12/10 04:37:14;;;;;;;4.80;1.60;;;;;;;;;;5125922;28;20415;-73
2021/12/10 04:39:45;;;;;;;1.23;1.00;;;;;;;;;;5126485;28;20919;-72
2021/12/10 04:42:12;;;;;;;4.00;1.50;;;;;;;;;;5126322;28;20422;-72
2021/12/10 04:44:38;;;;;;;6.03;1.23;;;;;;;;;;5126038;27;20423;-73
2021/12/10 04:47:04;;;;;;;1.33;0.87;;;;;;;;;;5126165;28;20434;-72
2021/12/10 04:49:30;;;;;;;1.10;0.97;;;;;;;;;;5127026;27;20433;-73
2021/12/10 04:51:57;;;;;;;1.20;1.20;;;;;;;;;;5125709;27;20487;-72
2021/12/10 04:54:24;;;;;;;3.07;1.13;;;;;;;;;;5123957;27;20447;-73
2021/12/10 04:56:51;;;;;;;8.53;1.80;;;;;;;;;;5126289;27;20514;-73
2021/12/10 04:59:19;;;;;;;3.23;2.93;;;;;;;;;;5126020;28;20435;-73
2021/12/10 05:01:46;;;;;;;6.57;3.60;;;;;;;;;;5100204;28;20449;-72
2021/12/10 05:04:12;;;;;;;46.47;15.17;;;;;;;;;;5114469;27;20431;-73
2021/12/10 05:06:39;;;;;;;27.37;11.20;;;;;;;;;;5112480;28;20896;-74
2021/12/10 05:09:06;;;;;;;27.93;12.37;;;;;;;;;;5112399;28;20493;-73
2021/12/10 05:11:32;;;;;;;18.80;8.40;;;;;;;;;;5112369;28;20497;-72
2021/12/10 05:13:58;;;;;;;23.73;8.03;;;;;;;;;;5111763;28;20445;-73
2021/12/10 05:16:26;;;;;;;8.93;6.97;;;;;;;;;;5112342;28;21068;-73
2021/12/10 05:18:59;;;;;;;23.37;8.27;;;;;;;;;;5112644;28;20423;-72
2021/12/10 05:21:26;;;;;;;31.30;12.10;;;;;;;;;;5111454;28;20443;-74
2021/12/10 05:23:52;;;;;;;24.83;10.97;;;;;;;;;;5111541;28;20431;-73
2021/12/10 05:26:18;;;;;;;4.87;4.07;;;;;;;;;;5112201;28;21231;-73
2021/12/10 05:28:44;;;;;;;10.67;5.73;;;;;;;;;;5110835;28;20462;-73
2021/12/10 05:31:10;;;;;;;10.80;6.17;;;;;;;;;;5110638;28;20533;-74
2021/12/10 05:33:36;;;;;;;14.80;7.13;;;;;;;;;;5110760;28;20866;-72
2021/12/10 05:36:03;;;;;;;14.30;8.90;;;;;;;;;;5111840;28;20438;-72
2021/12/10 05:38:31;;;;;;;19.27;13.40;;;;;;;;;;5111572;28;20462;-73
2021/12/10 05:41:00;;;;;;;19.00;12.40;;;;;;;;;;5110137;28;20924;-75
2021/12/10 05:43:26;;;;;;;13.37;9.73;;;;;;;;;;5110257;28;20851;-72
2021/12/10 05:45:53;;;;;;;16.53;10.63;;;;;;;;;;5111643;28;20447;-73
2021/12/10 05:48:20;;;;;;;8.50;7.27;;;;;;;;;;5111781;28;20514;-72
2021/12/10 05:50:46;;;;;;;16.97;8.10;;;;;;;;;;5109836;28;21057;-73
2021/12/10 05:53:12;;;;;;;9.90;7.90;;;;;;;;;;5110341;28;20812;-72
2021/12/10 05:55:40;;;;;;;16.20;8.73;;;;;;;;;;5111707;28;20419;-73
2021/12/10 05:58:07;;;;;;;14.20;8.13;;;;;;;;;;5110911;28;20767;-73
2021/12/10 06:00:47;;;;;;;9.03;5.17;;;;;;;;;;5109927;28;20946;-75
2021/12/10 06:03:13;;;;;;;7.37;6.67;;;;;;;;;;5111074;28;20922;-73
2021/12/10 06:05:40;;;;;;;15.07;6.97;;;;;;;;;;5110872;28;20513;-74
2021/12/10 06:08:06;;;;;;;13.20;6.50;;;;;;;;;;5109431;28;20427;-73
2021/12/10 06:10:33;;;;;;;6.60;5.90;;;;;;;;;;5111484;28;20515;-73
2021/12/10 06:12:59;;;;;;;10.50;5.70;;;;;;;;;;5110640;28;20479;-74
2021/12/10 06:15:26;;;;;;;8.67;6.03;;;;;;;;;;5109727;28;20807;-73
2021/12/10 06:17:52;;;;;;;9.93;7.47;;;;;;;;;;5111187;28;20432;-72
2021/12/10 06:20:20;;;;;;;12.50;6.20;;;;;;;;;;5110362;28;20427;-73
2021/12/10 06:22:46;;;;;;;7.07;6.03;;;;;;;;;;5106138;28;20796;-74
2021/12/10 06:25:12;;;;;;;7.80;5.73;;;;;;;;;;5108949;28;20439;-72
2021/12/10 06:27:44;;;;;;;5.20;4.80;;;;;;;;;;5109116;28;20447;-73
2021/12/10 06:30:11;;;;;;;5.73;4.90;;;;;;;;;;5109883;28;20420;-72
2021/12/10 06:32:36;;;;;;;8.80;4.23;;;;;;;;;;5108595;28;20487;-73
2021/12/10 06:35:03;;;;;;;10.63;3.57;;;;;;;;;;5109513;28;20834;-72
2021/12/10 06:37:29;;;;;;;3.37;2.70;;;;;;;;;;5109575;28;20485;-73
2021/12/10 06:39:55;;;;;;;3.53;3.00;;;;;;;;;;5107740;28;20431;-72
2021/12/10 06:42:21;;;;;;;3.80;2.77;;;;;;;;;;5110798;28;20420;-74
2021/12/10 06:44:47;;;;;;;3.43;2.50;;;;;;;;;;5108170;28;20454;-73
2021/12/10 06:47:13;;;;;;;8.03;3.13;;;;;;;;;;5110260;28;20439;-72
2021/12/10 06:49:39;;;;;;;4.73;1.70;;;;;;;;;;5109972;28;20777;-72
2021/12/10 06:52:05;;;;;;;15.37;1.50;;;;;;;;;;5109823;28;20843;-73
2021/12/10 06:54:31;;;;;;;5.43;1.30;;;;;;;;;;5108978;28;20431;-73
2021/12/10 06:56:57;;;;;;;2.43;2.10;;;;;;;;;;5108824;28;20450;-73
2021/12/10 06:59:25;;;;;;;2.63;2.53;;;;;;;;;;5109145;28;20412;-74
2021/12/10 07:01:51;;;;;;;3.90;1.83;;;;;;;;;;5095956;28;20842;-74
2021/12/10 07:04:19;;;;;;;9.37;2.70;;;;;;;;;;5108066;28;20462;-73
2021/12/10 07:06:46;;;;;;;7.53;2.30;;;;;;;;;;5109052;28;20569;-73
2021/12/10 07:09:14;;;;;;;7.23;2.47;;;;;;;;;;5108919;28;20420;-72
2021/12/10 07:11:40;;;;;;;3.00;2.80;;;;;;;;;;5106894;28;20490;-74
2021/12/10 07:14:06;;;;;;;2.93;2.23;;;;;;;;;;5109676;28;20432;-73
2021/12/10 07:16:32;;;;;;;13.70;3.17;;;;;;;;;;5108029;28;20444;-72
2021/12/10 07:18:59;;;;;;;3.50;3.20;;;;;;;;;;5109984;28;20769;-72
2021/12/10 07:21:26;;;;;;;3.17;2.93;;;;;;;;;;5106077;28;20791;-72
2021/12/10 07:23:52;;;;;;;2.83;2.63;;;;;;;;;;5105796;28;20466;-73
2021/12/10 07:26:18;;;;;;;7.43;5.47;;;;;;;;;;5107803;28;20442;-73
2021/12/10 07:28:44;;;;;;;10.20;7.50;;;;;;;;;;5107606;28;20449;-72
2021/12/10 07:31:11;;;;;;;7.43;5.60;;;;;;;;;;5106553;28;20467;-73
2021/12/10 07:33:37;;;;;;;6.40;5.93;;;;;;;;;;5107572;28;21694;-72
2021/12/10 07:36:04;;;;;;;4.17;3.97;;;;;;;;;;5108664;28;20415;-73
2021/12/10 07:38:31;;;;;;;3.90;3.37;;;;;;;;;;5108523;28;20439;-72
2021/12/10 07:40:57;;;;;;;2.50;2.50;;;;;;;;;;5108616;28;20816;-73
2021/12/10 07:43:23;;;;;;;3.40;3.20;;;;;;;;;;5109589;28;20530;-72
2021/12/10 07:45:51;;;;;;;3.27;3.03;;;;;;;;;;5106645;28;20440;-73
2021/12/10 07:48:22;;;;;;;1.83;1.80;;;;;;;;;;5108355;28;20449;-73
2021/12/10 07:50:53;;;;;;;2.20;2.13;;;;;;;;;;5108309;28;20428;-72
2021/12/10 07:53:20;;;;;;;2.93;2.63;;;;;;;;;;5109887;28;20456;-72
2021/12/10 07:55:46;;;;;;;4.60;2.10;;;;;;;;;;5108796;28;20772;-73
2021/12/10 07:58:13;;;;;;;6.80;3.60;;;;;;;;;;5108420;28;20529;-73
2021/12/10 08:00:40;;;;;;;4.40;2.47;;;;;;;;;;5108755;28;20431;-74
2021/12/10 08:03:06;;;;;;;6.27;3.67;;;;;;;;;;5106095;28;21763;-73
2021/12/10 08:05:33;;;;;;;6.40;1.83;;;;;;;;;;5098269;28;20474;-73
2021/12/10 08:07:59;;;;;;;3.47;3.30;;;;;;;;;;5106521;28;20475;-72
2021/12/10 08:10:25;;;;;;;2.60;2.40;;;;;;;;;;5108485;28;20424;-73
2021/12/10 08:12:51;;;;;;;2.90;2.80;;;;;;;;;;5104882;28;20490;-75
2021/12/10 08:15:17;;;;;;;3.40;3.20;;;;;;;;;;5107837;28;20419;-72
2021/12/10 08:17:44;;;;;;;2.63;2.53;;;;;;;;;;5107559;28;21220;-71
2021/12/10 08:20:12;;;;;;;5.07;2.60;;;;;;;;;;5108227;28;20430;-71
2021/12/10 08:22:38;;;;;;;2.03;1.93;;;;;;;;;;5104486;28;20470;-72
2021/12/10 08:25:05;;;;;;;2.20;2.10;;;;;;;;;;5106195;28;20931;-73
2021/12/10 08:27:31;;;;;;;3.13;1.60;;;;;;;;;;5105470;28;20440;-73
2021/12/10 08:30:03;;;;;;;3.60;2.13;;;;;;;;;;5107560;28;20411;-73
2021/12/10 08:32:29;;;;;;;2.30;2.30;;;;;;;;;;5107223;28;20574;-73
2021/12/10 08:34:55;;;;;;;8.23;3.00;;;;;;;;;;5107181;28;20431;-72
2021/12/10 08:37:21;;;;;;;2.77;2.13;;;;;;;;;;5105193;28;20474;-72
2021/12/10 08:39:47;;;;;;;1.90;1.80;;;;;;;;;;5112554;28;20506;-72
2021/12/10 08:42:14;;;;;;;3.37;2.07;;;;;;;;;;5109984;28;20431;-71
2021/12/10 08:44:42;;;;;;;2.33;2.20;;;;;;;;;;5112360;28;20435;-71
2021/12/10 08:47:08;;;;;;;2.67;2.07;;;;;;;;;;5109962;28;20425;-72
2021/12/10 08:49:34;;;;;;;2.50;2.30;;;;;;;;;;5105458;28;20424;-71
2021/12/10 08:52:03;;;;;;;3.53;3.30;;;;;;;;;;5110328;28;20866;-72
2021/12/10 08:54:30;;;;;;;6.87;3.13;;;;;;;;;;5110243;28;20446;-71
2021/12/10 08:56:56;;;;;;;2.73;2.63;;;;;;;;;;5111800;28;20442;-71
2021/12/10 08:59:23;;;;;;;2.07;2.03;;;;;;;;;;5111111;28;20454;-71
2021/12/10 09:01:51;;;;;;;2.50;2.33;;;;;;;;;;5110328;28;20431;-71
2021/12/10 09:04:17;;;;;;;4.03;3.50;;;;;;;;;;5109709;28;20928;-71
2021/12/10 09:06:45;;;;;;;5.23;3.63;;;;;;;;;;5111113;28;20522;-71
2021/12/10 09:09:13;;;;;;;6.10;3.40;;;;;;;;;;5108372;28;20435;-71
2021/12/10 09:11:41;;;;;;;6.47;3.30;;;;;;;;;;5109339;28;20562;-70
2021/12/10 09:14:08;;;;;;;2.57;2.37;;;;;;;;;;5110053;28;21000;-71
2021/12/10 09:16:36;;;;;;;13.27;3.43;;;;;;;;;;5110986;28;20522;-71
2021/12/10 09:19:04;;;;;;;3.13;2.90;;;;;;;;;;5110377;28;20527;-71
2021/12/10 09:21:31;;;;;;;4.67;2.70;;;;;;;;;;5110315;28;20427;-72
2021/12/10 09:24:03;;;;;;;3.50;2.40;;;;;;;;;;5110674;27;20849;-72
2021/12/10 09:26:29;;;;;;;2.60;1.90;;;;;;;;;;5110294;28;20435;-73
2021/12/10 09:28:57;;;;;;;3.23;2.80;;;;;;;;;;5111795;28;20427;-73
2021/12/10 09:31:24;;;;;;;3.90;2.10;;;;;;;;;;5102530;28;20498;-73
2021/12/10 09:33:52;;;;;;;5.03;3.10;;;;;;;;;;5110357;27;20466;-72
2021/12/10 09:36:18;;;;;;;2.80;2.70;;;;;;;;;;5109084;28;20444;-71
2021/12/10 09:38:44;;;;;;;6.30;2.47;;;;;;;;;;5109900;28;20601;-71
2021/12/10 09:41:11;;;;;;;7.40;3.50;;;;;;;;;;5111130;28;20530;-71
2021/12/10 09:43:38;;;;;;;3.00;2.90;;;;;;;;;;5107451;28;20500;-71
2021/12/10 09:46:04;;;;;;;66.10;31.57;;;;;;;;;;5111056;28;20443;-71
2021/12/10 09:48:31;;;;;;;4.50;4.07;;;;;;;;;;5108698;28;20831;-71
2021/12/10 09:51:02;;;;;;;5.43;2.40;;;;;;;;;;5109364;28;20459;-72
2021/12/10 09:53:30;;;;;;;2.77;2.67;;;;;;;;;;5109913;28;20943;-71
2021/12/10 09:55:55;;;;;;;5.43;3.83;;;;;;;;;;5110194;28;20944;-72
2021/12/10 09:58:22;;;;;;;3.00;2.90;;;;;;;;;;5108679;28;20426;-72
2021/12/10 10:00:50;;;;;;;4.10;3.80;;;;;;;;;;5108630;28;20423;-72
2021/12/10 10:03:17;;;;;;;3.90;2.97;;;;;;;;;;5108819;28;20519;-72
2021/12/10 10:05:45;;;;;;;5.80;4.27;;;;;;;;;;5110691;28;20424;-72
2021/12/10 10:08:12;;;;;;;5.40;3.90;;;;;;;;;;5108522;28;20415;-72
2021/12/10 10:10:40;;;;;;;4.97;3.50;;;;;;;;;;5110238;28;20424;-72
2021/12/10 10:13:10;;;;;;;5.20;3.37;;;;;;;;;;5105091;28;20475;-72
2021/12/10 10:15:38;;;;;;;6.57;4.50;;;;;;;;;;5109893;28;20438;-73
2021/12/10 10:18:06;;;;;;;3.90;3.70;;;;;;;;;;5110207;28;20780;-71
2021/12/10 10:20:33;;;;;;;5.10;3.73;;;;;;;;;;5110111;28;20470;-71
2021/12/10 10:22:59;;;;;;;4.07;3.77;;;;;;;;;;5109453;28;20939;-72
2021/12/10 10:25:26;;;;;;;5.93;3.67;;;;;;;;;;5109681;28;20419;-71
2021/12/10 10:27:52;;;;;;;4.43;4.13;;;;;;;;;;5109682;28;20432;-72
2021/12/10 10:30:39;;;;;;;6.33;5.70;;;;;;;;;;5110478;28;20916;-71
2021/12/10 10:33:06;;;;;;;5.10;4.53;;;;;;;;;;5110449;28;20695;-70
2021/12/10 10:35:35;;;;;;;4.40;4.10;;;;;;;;;;5106561;27;20423;-71
2021/12/10 10:38:02;;;;;;;3.87;3.57;;;;;;;;;;5109866;28;20805;-72
2021/12/10 10:40:31;;;;;;;3.70;3.50;;;;;;;;;;5108921;28;20416;-71
2021/12/10 10:42:58;;;;;;;3.83;3.63;;;;;;;;;;5109787;28;20431;-71
2021/12/10 10:45:27;;;;;;;3.37;3.13;;;;;;;;;;5108435;28;20430;-71
2021/12/10 10:47:53;;;;;;;2.50;2.40;;;;;;;;;;5109749;28;20436;-72
2021/12/10 10:50:22;;;;;;;5.10;4.37;;;;;;;;;;5107224;28;20407;-71
2021/12/10 10:52:53;;;;;;;1.03;1.03;;;;;;;;;;5108908;28;20540;-73
2021/12/10 10:55:22;;;;;;;2.57;2.00;;;;;;;;;;5107755;28;20858;-71
2021/12/10 10:57:58;;;;;;;1.50;1.50;;;;;;;;;;5110246;28;20436;-71
2021/12/10 11:00:58;;;;;;;0.50;0.50;;;;;;;;;;5106633;28;20432;-73
2021/12/10 11:03:35;;;;;;;1.10;1.10;;;;;;;;;;5108565;28;20427;-72
2021/12/10 11:06:01;;;;;;;1.73;1.73;;;;;;;;;;5105059;27;20440;-71
2021/12/10 11:08:35;;;;;;;4.13;3.93;;;;;;;;;;5108733;28;20440;-72
2021/12/10 11:11:10;;;;;;;54.87;27.90;;;;;;;;;;5104003;28;20420;-73
2021/12/10 11:13:36;;;;;;;5.60;5.10;;;;;;;;;;5106140;28;20782;-71
2021/12/10 11:16:02;;;;;;;1.47;1.47;;;;;;;;;;5108059;28;20431;-72
2021/12/10 11:18:38;;;;;;;5.20;4.90;;;;;;;;;;5109840;28;20423;-72
2021/12/10 11:21:04;;;;;;;18.93;13.47;;;;;;;;;;5107469;28;20469;-72
2021/12/10 11:23:31;;;;;;;3.57;3.50;;;;;;;;;;5108084;28;20446;-72
2021/12/10 11:25:57;;;;;;;2.27;2.20;;;;;;;;;;5106820;28;20985;-71
2021/12/10 11:28:26;;;;;;;2.17;2.17;;;;;;;;;;5109530;28;20440;-73
2021/12/10 11:30:58;;;;;;;0.50;0.50;;;;;;;;;;5108300;28;20411;-71
2021/12/10 11:33:25;;;;;;;0.80;0.80;;;;;;;;;;5108215;28;20438;-71
2021/12/10 11:35:56;;;;;;;0.50;0.50;;;;;;;;;;5107761;28;20418;-72
2021/12/10 11:38:28;;;;;;;0.87;0.87;;;;;;;;;;5110069;28;20962;-71
2021/12/10 11:41:14;;;;;;;0.80;0.80;;;;;;;;;;5100593;28;20481;-72
2021/12/10 11:43:57;;;;;;;0.80;0.80;;;;;;;;;;5108996;28;20926;-71
2021/12/10 11:46:30;;;;;;;0.50;0.50;;;;;;;;;;5106485;28;20427;-71
2021/12/10 11:49:02;;;;;;;0.90;0.90;;;;;;;;;;5109005;28;20428;-72
2021/12/10 11:51:28;;;;;;;0.70;0.70;;;;;;;;;;5106438;28;20483;-70
2021/12/10 11:54:02;;;;;;;0.80;0.80;;;;;;;;;;5107975;28;20436;-71
2021/12/10 11:56:30;;;;;;;0.40;0.40;;;;;;;;;;5105820;28;20458;-72
2021/12/10 11:59:15;;;;;;;1.07;0.90;;;;;;;;;;5108840;28;20432;-73
2021/12/10 12:01:56;;;;;;;4.80;0.57;;;;;;;;;;5107326;28;20946;-71
2021/12/10 12:04:25;;;;;;;0.30;0.30;;;;;;;;;;5102967;28;20442;-72
2021/12/10 12:07:09;;;;;;;3.43;1.37;;;;;;;;;;5105479;28;20514;-72
2021/12/10 12:09:38;;;;;;;0.40;0.40;;;;;;;;;;5107144;28;20442;-71
2021/12/10 12:12:08;;;;;;;1.00;1.00;;;;;;;;;;5107770;28;20514;-72
2021/12/10 12:14:36;;;;;;;2.07;1.97;;;;;;;;;;5110070;28;20542;-71
2021/12/10 12:17:05;;;;;;;0.97;0.97;;;;;;;;;;5109811;28;20435;-70
2021/12/10 12:19:31;;;;;;;0.90;0.90;;;;;;;;;;5109118;28;20447;-72
2021/12/10 12:27:28;;;;;;;1.30;1.30;;;;;;;;;;5112466;28;20451;-70
2021/12/10 12:29:58;;;;;;;1.40;1.27;;;;;;;;;;5110141;28;20475;-71
2021/12/10 12:32:26;;;;;;;2.57;2.47;;;;;;;;;;5112956;28;21471;-74
2021/12/10 12:34:52;;;;;;;0.40;0.40;;;;;;;;;;5107683;28;20434;-70
2021/12/10 12:37:20;;;;;;;1.10;1.10;;;;;;;;;;5110536;28;20474;-72
2021/12/10 12:39:51;;;;;;;1.47;1.47;;;;;;;;;;5107756;28;20439;-71
2021/12/10 12:42:21;;;;;;;1.33;1.23;;;;;;;;;;5110462;28;20436;-71
2021/12/10 12:44:49;;;;;;;2.20;2.20;;;;;;;;;;5109658;27;20419;-71
2021/12/10 12:47:16;;;;;;;0.60;0.60;;;;;;;;;;5108342;28;20872;-70
2021/12/10 12:49:48;;;;;;;2.40;0.87;;;;;;;;;;5110672;28;20920;-70
2021/12/10 12:52:15;;;;;;;0.43;0.43;;;;;;;;;;5111890;28;20491;-71
2021/12/10 12:55:00;;;;;;;2.67;1.93;;;;;;;;;;5110487;27;20508;-71
2021/12/10 12:57:36;;;;;;;2.30;1.13;;;;;;;;;;5110158;28;20427;-72
2021/12/10 13:00:06;;;;;;;3.10;2.90;;;;;;;;;;5110119;28;20424;-72
2021/12/10 13:02:32;;;;;;;3.33;3.17;;;;;;;;;;5110255;28;20412;-72
2021/12/10 13:04:58;;;;;;;4.27;3.93;;;;;;;;;;5110627;28;20492;-71
2021/12/10 13:07:25;;;;;;;5.40;5.00;;;;;;;;;;5109886;28;20419;-71
2021/12/10 13:09:55;;;;;;;5.10;4.60;;;;;;;;;;5110301;28;20643;-71
2021/12/10 13:12:44;;;;;;;1.17;1.17;;;;;;;;;;5111038;28;20483;-71
2021/12/10 13:15:15;;;;;;;1.27;1.27;;;;;;;;;;5107689;28;20443;-71
2021/12/10 13:17:45;;;;;;;1.37;1.37;;;;;;;;;;5110591;28;20831;-72
2021/12/10 13:20:14;;;;;;;1.63;1.63;;;;;;;;;;5110418;28;20439;-72
2021/12/10 13:22:40;;;;;;;1.70;1.70;;;;;;;;;;5111000;28;20415;-72
2021/12/10 13:25:10;;;;;;;0.70;0.70;;;;;;;;;;5107394;28;20431;-71
2021/12/10 13:27:37;;;;;;;0.80;0.80;;;;;;;;;;5111428;28;20415;-69
2021/12/10 13:30:05;;;;;;;2.77;0.60;;;;;;;;;;5109643;28;20935;-71
2021/12/10 13:32:32;;;;;;;1.80;1.70;;;;;;;;;;5107729;28;20487;-71
2021/12/10 13:34:58;;;;;;;1.90;1.47;;;;;;;;;;5110882;27;20831;-71
2021/12/10 13:37:24;;;;;;;0.90;0.90;;;;;;;;;;5111018;28;20431;-72
2021/12/10 13:39:54;;;;;;;1.63;0.83;;;;;;;;;;5110236;28;20420;-78
2021/12/10 13:42:20;;;;;;;0.40;0.40;;;;;;;;;;5110573;28;20420;-69
2021/12/10 13:44:51;;;;;;;1.70;1.70;;;;;;;;;;5107905;28;20436;-72
2021/12/10 13:47:24;;;;;;;1.93;1.83;;;;;;;;;;5110487;28;20416;-73
2021/12/10 13:49:53;;;;;;;0.83;0.83;;;;;;;;;;5108975;28;20977;-74
2021/12/10 13:52:37;;;;;;;0.70;0.70;;;;;;;;;;5110860;28;20483;-73
2021/12/10 13:55:05;;;;;;;1.37;0.90;;;;;;;;;;5109712;28;20563;-74
2021/12/10 13:57:32;;;;;;;0.50;0.50;;;;;;;;;;5109078;27;20462;-71
2021/12/10 13:59:59;;;;;;;0.80;0.80;;;;;;;;;;5110334;28;20947;-70
2021/12/10 14:02:36;;;;;;;0.60;0.60;;;;;;;;;;5107098;28;20436;-71
2021/12/10 14:05:17;;;;;;;0.70;0.70;;;;;;;;;;5109287;28;20434;-71
2021/12/10 14:07:59;;;;;;;0.70;0.70;;;;;;;;;;5108358;28;20447;-71
2021/12/10 14:10:31;;;;;;;2.17;2.13;;;;;;;;;;5109883;28;20432;-70
2021/12/10 14:12:59;;;;;;;0.90;0.90;;;;;;;;;;5109811;28;20487;-70
2021/12/10 14:15:25;;;;;;;0.50;0.50;;;;;;;;;;5109894;28;20492;-71
2021/12/10 14:17:54;;;;;;;0.80;0.77;;;;;;;;;;5108774;28;20539;-71
2021/12/10 14:20:26;;;;;;;0.67;0.67;;;;;;;;;;5109208;28;20944;-70
2021/12/10 14:22:57;;;;;;;1.00;1.00;;;;;;;;;;5105950;28;20447;-71
2021/12/10 14:25:29;;;;;;;0.40;0.40;;;;;;;;;;5106629;28;20416;-71
2021/12/10 14:28:00;;;;;;;1.10;1.10;;;;;;;;;;5107461;28;20562;-72
2021/12/10 14:30:38;;;;;;;0.50;0.47;;;;;;;;;;5108588;28;20432;-71
2021/12/10 14:33:09;;;;;;;0.80;0.80;;;;;;;;;;5107253;28;20511;-72
2021/12/10 14:35:44;;;;;;;0.97;0.50;;;;;;;;;;5107974;28;20487;-72
2021/12/10 14:38:11;;;;;;;2.13;2.03;;;;;;;;;;5107845;28;20462;-72
2021/12/10 14:40:47;;;;;;;1.83;1.73;;;;;;;;;;5109370;28;20442;-72
2021/12/10 14:43:15;;;;;;;2.30;2.20;;;;;;;;;;5107752;28;20439;-73
2021/12/10 14:46:00;;;;;;;1.20;1.10;;;;;;;;;;5109554;28;20829;-72
2021/12/10 14:48:26;;;;;;;5.80;2.50;;;;;;;;;;5108724;28;20951;-71
2021/12/10 14:50:58;;;;;;;0.47;0.47;;;;;;;;;;5109709;28;20506;-71
2021/12/10 14:53:26;;;;;;;0.70;0.70;;;;;;;;;;5107874;28;20532;-71
2021/12/10 14:55:52;;;;;;;0.70;0.70;;;;;;;;;;5109844;28;20428;-71
2021/12/10 14:58:19;;;;;;;0.70;0.70;;;;;;;;;;5108361;28;20798;-71
2021/12/10 15:00:50;;;;;;;0.60;0.60;;;;;;;;;;5107754;28;20431;-71
2021/12/10 15:03:18;;;;;;;0.40;0.40;;;;;;;;;;5108879;28;20420;-71
2021/12/10 15:05:53;;;;;;;0.50;0.50;;;;;;;;;;5109887;28;20427;-70